Ben-my-chree — MXLG6 — position and weather

sailwx.info

Track history (hours):
 
Tides and Currents Weather Stations Pressure Air Temp Water Temp Dewpoint Dewpoint Depression Visibility Wind Speed Wind Dir Waves Ship Positions

Ben-my-chree

Operator: The Isle of Man Steam Packet Co Ltd

Last reported at 2019-Oct-23 21:30 UTC. Time now 2019-Oct-23 21:53 UTC.
Position N 53°55' W 003°17'.

Length 125 m; draft 5.1 m.

Type: Ship. MMSI: 234983000.

Date/timePositionNaut miles runAvg speedWind from/ knotsBaromVisibWave heightAir tempDewpointWater temp
2019-Oct-23 21:30N 53°55' W 003°17'816.1
2019-Oct-23 21:00N 53°56' W 003°31'816.6
2019-Oct-23 20:30N 53°59' W 003°44'6 1.0
2019-Oct-23 14:48N 53°57' W 003°36'517.0
2019-Oct-23 14:30N 53°56' W 003°27'817.0
2019-Oct-23 14:00N 53°56' W 003°13'917.4
2019-Oct-23 13:30N 53°59' W 002°60'4 7.2
2019-Oct-23 12:58N 54°02' W 002°55'0 0.0
2019-Oct-23 12:25N 54°02' W 002°55'0 0.0
2019-Oct-23 11:58N 54°02' W 002°55'0 0.0
2019-Oct-23 11:30N 54°02' W 002°55'4 8.8
2019-Oct-23 11:00N 53°59' W 003°01'816.3
2019-Oct-23 10:30N 53°56' W 003°13'816.8
2019-Oct-23 10:01N 53°56' W 003°27'816.6
2019-Oct-23 09:30N 53°58' W 003°41'816.4
2019-Oct-23 09:01N 54°01' W 003°54'5 0.8
2019-Oct-23 03:07N 53°60' W 003°46'215.9
2019-Oct-23 03:00N 53°59' W 003°43'1615.9
2019-Oct-23 02:01N 53°56' W 003°17'816.3
2019-Oct-23 01:30N 53°58' W 003°04'713.5
2019-Oct-23 01:00N 54°02' W 002°55'0 0.0
2019-Oct-23 00:25N 54°02' W 002°55'0 0.0
2019-Oct-22 23:55N 54°02' W 002°55'0 0.0
2019-Oct-22 23:25N 54°02' W 002°55'0 0.0
2019-Oct-22 22:55N 54°02' W 002°55'0 0.0
2019-Oct-22 22:28N 54°02' W 002°55'2 4.5
2019-Oct-22 22:00N 54°01' W 002°58'816.6
2019-Oct-22 21:30N 53°56' W 003°09'816.7
2019-Oct-22 21:00N 53°56' W 003°23'816.6
2019-Oct-22 20:30N 53°58' W 003°37'2 0.4
2019-Oct-22 14:59N 53°58' W 003°41'816.0
2019-Oct-22 14:30N 53°56' W 003°29'815.6
2019-Oct-22 14:00N 53°56' W 003°15'815.8
2019-Oct-22 13:30N 53°58' W 003°03'611.8
2019-Oct-22 13:00N 54°02' W 002°55'0 0.0
2019-Oct-22 12:29N 54°02' W 002°55'0 0.0
2019-Oct-22 11:59N 54°02' W 002°55'0 0.0
2019-Oct-22 11:29N 54°02' W 002°55'2 5.0
2019-Oct-22 11:01N 54°00' W 002°58'917.0
2019-Oct-22 10:30N 53°56' W 003°10'917.5
2019-Oct-22 10:00N 53°55' W 003°25'816.9
2019-Oct-22 09:31N 53°56' W 003°39'3 0.4
2019-Oct-22 03:04N 53°59' W 003°41'116.2
2019-Oct-22 03:01N 53°58' W 003°40'815.9
2019-Oct-22 02:31N 53°56' W 003°27'815.8
2019-Oct-22 02:01N 53°56' W 003°14'816.0
2019-Oct-22 01:31N 53°59' W 003°01'5 9.8
2019-Oct-22 01:00N 54°02' W 002°55'0 0.0
2019-Oct-22 00:27N 54°02' W 002°55'0 0.0
2019-Oct-21 23:57N 54°02' W 002°55'0 0.0
2019-Oct-21 23:21N 54°02' W 002°55'0 0.0
2019-Oct-21 22:51N 54°02' W 002°55'0 0.0
2019-Oct-21 22:31N 54°02' W 002°55'4 7.5
2019-Oct-21 22:00N 53°60' W 002°60'816.8
2019-Oct-21 21:30N 53°55' W 003°12'917.2
2019-Oct-21 21:00N 53°55' W 003°27'917.3
2019-Oct-21 20:30N 53°58' W 003°41'1 0.2
2019-Oct-21 15:10N 53°59' W 003°42'317.0
2019-Oct-21 15:00N 53°58' W 003°38'816.4
2019-Oct-21 14:30N 53°55' W 003°25'816.5
2019-Oct-21 14:01N 53°56' W 003°11'816.1
2019-Oct-21 13:31N 53°60' W 002°59'3 6.1
2019-Oct-21 12:59N 54°02' W 002°55'0 0.0
2019-Oct-21 12:29N 54°02' W 002°55'0 0.0
2019-Oct-21 11:59N 54°02' W 002°55'0 0.0
2019-Oct-21 11:29N 54°02' W 002°55'2 4.3
2019-Oct-21 11:00N 54°01' W 002°58'816.8
2019-Oct-21 10:30N 53°56' W 003°09'917.1
2019-Oct-21 10:00N 53°55' W 003°24'816.9
2019-Oct-21 09:31N 53°58' W 003°38'2 0.2
2019-Oct-21 02:50N 53°58' W 003°40'616.8
2019-Oct-21 02:30N 53°56' W 003°32'816.3
2019-Oct-21 02:00N 53°55' W 003°18'816.0
2019-Oct-21 01:31N 53°57' W 003°05'714.6
2019-Oct-21 01:00N 54°02' W 002°55'0 0.1
2019-Oct-21 00:16N 54°02' W 002°55'0 0.0
2019-Oct-20 23:40N 54°02' W 002°55'0 0.0
2019-Oct-20 23:28N 54°02' W 002°55'0 0.0
2019-Oct-20 22:58N 54°02' W 002°55'2 4.3
2019-Oct-20 22:31N 54°01' W 002°58'816.7
2019-Oct-20 22:00N 53°56' W 003°09'816.9
2019-Oct-20 21:31N 53°55' W 003°23'816.6
2019-Oct-20 21:00N 53°57' W 003°37'816.5
2019-Oct-20 20:30N 54°00' W 003°51'7 1.3
2019-Oct-20 14:52N 53°58' W 003°39'617.0
2019-Oct-20 14:30N 53°56' W 003°30'816.8
2019-Oct-20 14:01N 53°56' W 003°15'816.2
2019-Oct-20 13:31N 53°58' W 003°02'6 9.1
2019-Oct-20 12:52N 54°02' W 002°55'0 0.0
2019-Oct-20 12:28N 54°02' W 002°55'0 0.0
2019-Oct-20 11:58N 54°02' W 002°55'0 0.0
2019-Oct-20 11:28N 54°02' W 002°55'2 4.0
2019-Oct-20 11:01N 54°01' W 002°57'917.3
2019-Oct-20 10:31N 53°56' W 003°09'918.0
2019-Oct-20 10:01N 53°55' W 003°25'917.3
2019-Oct-20 09:31N 53°56' W 003°39'2 0.3
2019-Oct-20 02:50N 53°58' W 003°41'617.2
2019-Oct-20 02:30N 53°56' W 003°31'816.7
2019-Oct-20 02:00N 53°56' W 003°17'816.1
2019-Oct-20 01:30N 53°58' W 003°04'713.9
2019-Oct-20 01:00N 54°02' W 002°55'0 0.0
2019-Oct-20 00:25N 54°02' W 002°55'0 0.0
2019-Oct-19 23:55N 54°02' W 002°55'0 0.0
2019-Oct-19 23:25N 54°02' W 002°55'0 0.0
2019-Oct-19 22:55N 54°02' W 002°55'0 0.0
2019-Oct-19 22:25N 54°02' W 002°55'1 2.6
2019-Oct-19 22:01N 54°02' W 002°57'816.6
2019-Oct-19 21:31N 53°56' W 003°08'917.3
2019-Oct-19 21:00N 53°55' W 003°22'817.0
2019-Oct-19 20:31N 53°57' W 003°36'917.0
2019-Oct-19 20:00N 54°00' W 003°50'6 1.2
2019-Oct-19 14:58N 53°58' W 003°40'817.5
2019-Oct-19 14:30N 53°55' W 003°28'917.4
2019-Oct-19 14:00N 53°56' W 003°13'816.2
2019-Oct-19 13:30N 53°59' W 003°00'4 5.6
2019-Oct-19 12:44N 54°02' W 002°55'0 0.0
2019-Oct-19 12:20N 54°02' W 002°55'0 0.0
2019-Oct-19 11:56N 54°02' W 002°55'0 0.0
2019-Oct-19 11:20N 54°02' W 002°55'0 0.3
2019-Oct-19 11:00N 54°02' W 002°55'815.0
2019-Oct-19 10:31N 53°57' W 003°05'918.5
2019-Oct-19 10:01N 53°56' W 003°20'917.8
2019-Oct-19 09:31N 53°57' W 003°35'917.7
2019-Oct-19 08:59N 54°00' W 003°50'6 1.0
2019-Oct-19 02:44N 53°58' W 003°40'417.9
2019-Oct-19 02:31N 53°57' W 003°33'917.5
2019-Oct-19 02:01N 53°56' W 003°19'816.9
2019-Oct-19 01:30N 53°57' W 003°05'714.6
2019-Oct-19 01:01N 54°02' W 002°55'0 0.1
2019-Oct-19 00:26N 54°02' W 002°55'0 0.0
2019-Oct-18 23:59N 54°02' W 002°55'0 0.0
2019-Oct-18 23:26N 54°02' W 002°55'0 0.0
2019-Oct-18 22:56N 54°02' W 002°55'0 0.0
2019-Oct-18 22:26N 54°02' W 002°55'2 4.3
2019-Oct-18 22:00N 54°01' W 002°57'917.8
2019-Oct-18 21:30N 53°56' W 003°10'917.9
2019-Oct-18 21:00N 53°56' W 003°25'816.6
2019-Oct-18 20:30N 53°58' W 003°38'2 0.4
2019-Oct-18 14:36N 53°56' W 003°35'218.2
2019-Oct-18 14:30N 53°56' W 003°33'917.7
2019-Oct-18 14:00N 53°56' W 003°18'816.9
2019-Oct-18 13:30N 53°58' W 003°04'713.2
2019-Oct-18 13:00N 54°02' W 002°55'0 0.0
2019-Oct-18 12:30N 54°02' W 002°55'0 0.0
2019-Oct-18 12:00N 54°02' W 002°55'0 0.0
2019-Oct-18 11:30N 54°02' W 002°55'1 1.3
2019-Oct-18 11:00N 54°02' W 002°56'1019.2
2019-Oct-18 10:30N 53°56' W 003°09'918.7
2019-Oct-18 10:01N 53°56' W 003°25'918.0
2019-Oct-18 09:31N 53°57' W 003°40'1 0.2
2019-Oct-18 02:45N 53°58' W 003°40'417.8
2019-Oct-18 02:30N 53°56' W 003°33'917.3
2019-Oct-18 02:00N 53°55' W 003°19'917.3
2019-Oct-18 01:30N 53°58' W 003°04'714.1
2019-Oct-18 01:00N 54°02' W 002°55'0 0.0
2019-Oct-18 00:28N 54°02' W 002°55'0 0.0
2019-Oct-17 23:52N 54°02' W 002°55'0 0.0
2019-Oct-17 23:28N 54°02' W 002°55'0 0.0
2019-Oct-17 22:52N 54°02' W 002°55'0 0.0
2019-Oct-17 22:28N 54°02' W 002°55'2 5.3
2019-Oct-17 22:00N 54°00' W 002°58'918.9
2019-Oct-17 21:30N 53°55' W 003°12'918.3
2019-Oct-17 21:01N 53°55' W 003°27'917.1
2019-Oct-17 20:31N 53°59' W 003°41'6 1.1
2019-Oct-17 14:27N 53°56' W 003°30'818.0
2019-Oct-17 14:00N 53°56' W 003°17'917.7
2019-Oct-17 13:31N 53°58' W 003°03'6 6.0
2019-Oct-17 12:29N 54°02' W 002°55'0 0.0
2019-Oct-17 11:45N 54°02' W 002°55'0 0.0
2019-Oct-17 11:28N 54°02' W 002°55'1 2.5
2019-Oct-17 11:00N 54°02' W 002°57'1019.8
2019-Oct-17 10:30N 53°56' W 003°10'918.0
2019-Oct-17 10:00N 53°56' W 003°26'917.2
2019-Oct-17 09:30N 53°58' W 003°40'7 0.9
2019-Oct-17 02:19N 53°56' W 003°29'618.1
2019-Oct-17 01:59N 53°56' W 003°20'817.6
2019-Oct-17 01:30N 53°57' W 003°05'815.2
2019-Oct-17 01:00N 54°02' W 002°55'0 0.0
2019-Oct-16 23:49N 54°02' W 002°55'0 0.0
2019-Oct-16 23:01N 54°02' W 002°55'0 0.0
2019-Oct-16 22:55N 54°02' W 002°55'0 0.0
2019-Oct-16 22:13N 54°02' W 002°55'0 0.6
2019-Oct-16 22:00N 54°02' W 002°55'917.1
2019-Oct-16 21:30N 53°57' W 003°06'918.9
2019-Oct-16 21:00N 53°56' W 003°22'917.9
2019-Oct-16 20:30N 53°58' W 003°37'917.9
2019-Oct-16 19:59N 54°01' W 003°53'14 2.5
2019-Oct-16 14:25N 53°56' W 003°31'717.8
2019-Oct-16 14:01N 53°55' W 003°18'917.5
2019-Oct-16 13:31N 53°57' W 003°04'714.0
2019-Oct-16 13:00N 54°02' W 002°55'0 0.0
2019-Oct-16 10:58N 54°02' W 002°55'613.3
2019-Oct-16 10:30N 53°58' W 003°03'1019.6
2019-Oct-16 10:00N 53°55' W 003°18'918.7
2019-Oct-16 09:30N 53°55' W 003°34'1018.5
2019-Oct-16 08:57N 53°60' W 003°50'13 2.0
2019-Oct-16 02:14N 53°56' W 003°29'518.7
2019-Oct-16 01:59N 53°56' W 003°21'918.6
2019-Oct-16 01:30N 53°57' W 003°06'816.7
2019-Oct-16 01:00N 54°02' W 002°55'0 0.0
2019-Oct-15 22:12N 54°02' W 002°55'0 0.4
2019-Oct-15 21:59N 54°02' W 002°55'715.3
2019-Oct-15 21:30N 53°57' W 003°05'1019.1
2019-Oct-15 21:00N 53°55' W 003°20'918.4
2019-Oct-15 20:30N 53°57' W 003°36'918.2
2019-Oct-15 20:00N 54°01' W 003°50'14 2.4
2019-Oct-15 14:15N 53°56' W 003°29'418.3
2019-Oct-15 14:00N 53°56' W 003°21'918.6
2019-Oct-15 13:30N 53°57' W 003°06'8 3.5
2019-Oct-15 11:13N 54°02' W 002°55'0 1.7
2019-Oct-15 11:00N 54°02' W 002°56'918.0
2019-Oct-15 10:30N 53°56' W 003°08'918.7
2019-Oct-15 10:00N 53°56' W 003°23'918.1
2019-Oct-15 09:30N 53°58' W 003°38'6 0.8
2019-Oct-15 02:14N 53°56' W 003°29'418.9
2019-Oct-15 02:01N 53°56' W 003°22'918.9
2019-Oct-15 01:31N 53°57' W 003°06'816.7
2019-Oct-15 01:00N 54°02' W 002°55'0 0.0
2019-Oct-15 00:26N 54°02' W 002°55'0 0.0
2019-Oct-15 00:00N 54°02' W 002°55'0 0.0
2019-Oct-14 23:30N 54°02' W 002°55'0 0.0
2019-Oct-14 22:59N 54°02' W 002°55'0 0.0
2019-Oct-14 22:30N 54°02' W 002°55'0 0.0
2019-Oct-14 22:00N 54°02' W 002°55'713.7
2019-Oct-14 21:30N 53°58' W 003°04'918.7
2019-Oct-14 21:00N 53°56' W 003°19'917.8
2019-Oct-14 20:30N 53°57' W 003°34'1017.9
2019-Oct-14 19:58N 54°00' W 003°50'14 2.4
2019-Oct-14 14:19N 53°56' W 003°28'719.0
2019-Oct-14 13:57N 53°56' W 003°17'919.4
2019-Oct-14 13:30N 53°58' W 003°03'6 6.6
2019-Oct-14 12:37N 54°02' W 002°55'0 0.0
2019-Oct-14 12:28N 54°02' W 002°55'0 0.0
2019-Oct-14 11:22N 54°02' W 002°55'0 0.2
2019-Oct-14 11:00N 54°02' W 002°55'816.4
2019-Oct-14 10:30N 53°57' W 003°06'918.2
2019-Oct-14 10:00N 53°56' W 003°21'917.6
2019-Oct-14 09:30N 53°57' W 003°36'1117.8
2019-Oct-14 08:55N 54°01' W 003°53'918.0
2019-Oct-14 08:25N 54°04' W 004°07'24 3.9
2019-Oct-14 02:13N 53°56' W 003°29'418.5
2019-Oct-14 02:00N 53°56' W 003°22'918.6
2019-Oct-14 01:30N 53°57' W 003°06'816.5
2019-Oct-14 01:00N 54°02' W 002°55'0 0.0
2019-Oct-13 22:24N 54°02' W 002°55'410.1
2019-Oct-13 22:01N 53°59' W 002°60'1019.5
2019-Oct-13 21:31N 53°56' W 003°15'  
Track history (hours):
 
Tides and Currents Weather Stations Pressure Air Temp Water Temp Dewpoint Dewpoint Depression Visibility Wind Speed Wind Dir Waves Ship Positions

Ben-my-chree

Operator: The Isle of Man Steam Packet Co Ltd

Last reported at 2019-Oct-23 21:30 UTC. Time now 2019-Oct-23 21:53 UTC.
Position N 53°55' W 003°17'.

Length 125 m; draft 5.1 m.

Type: Ship. MMSI: 234983000.

Date/timePositionNaut miles runAvg speedWind from/ knotsBaromVisibWave heightAir tempDewpointWater temp
2019-Oct-23 21:30N 53°55' W 003°17'816.1
2019-Oct-23 21:00N 53°56' W 003°31'816.6
2019-Oct-23 20:30N 53°59' W 003°44'6 1.0
2019-Oct-23 14:48N 53°57' W 003°36'517.0
2019-Oct-23 14:30N 53°56' W 003°27'817.0
2019-Oct-23 14:00N 53°56' W 003°13'917.4
2019-Oct-23 13:30N 53°59' W 002°60'4 7.2
2019-Oct-23 12:58N 54°02' W 002°55'0 0.0
2019-Oct-23 12:25N 54°02' W 002°55'0 0.0
2019-Oct-23 11:58N 54°02' W 002°55'0 0.0
2019-Oct-23 11:30N 54°02' W 002°55'4 8.8
2019-Oct-23 11:00N 53°59' W 003°01'816.3
2019-Oct-23 10:30N 53°56' W 003°13'816.8
2019-Oct-23 10:01N 53°56' W 003°27'816.6
2019-Oct-23 09:30N 53°58' W 003°41'816.4
2019-Oct-23 09:01N 54°01' W 003°54'5 0.8
2019-Oct-23 03:07N 53°60' W 003°46'215.9
2019-Oct-23 03:00N 53°59' W 003°43'1615.9
2019-Oct-23 02:01N 53°56' W 003°17'816.3
2019-Oct-23 01:30N 53°58' W 003°04'713.5
2019-Oct-23 01:00N 54°02' W 002°55'0 0.0
2019-Oct-23 00:25N 54°02' W 002°55'0 0.0
2019-Oct-22 23:55N 54°02' W 002°55'0 0.0
2019-Oct-22 23:25N 54°02' W 002°55'0 0.0
2019-Oct-22 22:55N 54°02' W 002°55'0 0.0
2019-Oct-22 22:28N 54°02' W 002°55'2 4.5
2019-Oct-22 22:00N 54°01' W 002°58'816.6
2019-Oct-22 21:30N 53°56' W 003°09'816.7
2019-Oct-22 21:00N 53°56' W 003°23'816.6
2019-Oct-22 20:30N 53°58' W 003°37'2 0.4
2019-Oct-22 14:59N 53°58' W 003°41'816.0
2019-Oct-22 14:30N 53°56' W 003°29'815.6
2019-Oct-22 14:00N 53°56' W 003°15'815.8
2019-Oct-22 13:30N 53°58' W 003°03'611.8
2019-Oct-22 13:00N 54°02' W 002°55'0 0.0
2019-Oct-22 12:29N 54°02' W 002°55'0 0.0
2019-Oct-22 11:59N 54°02' W 002°55'0 0.0
2019-Oct-22 11:29N 54°02' W 002°55'2 5.0
2019-Oct-22 11:01N 54°00' W 002°58'917.0
2019-Oct-22 10:30N 53°56' W 003°10'917.5
2019-Oct-22 10:00N 53°55' W 003°25'816.9
2019-Oct-22 09:31N 53°56' W 003°39'3 0.4
2019-Oct-22 03:04N 53°59' W 003°41'116.2
2019-Oct-22 03:01N 53°58' W 003°40'815.9
2019-Oct-22 02:31N 53°56' W 003°27'815.8
2019-Oct-22 02:01N 53°56' W 003°14'816.0
2019-Oct-22 01:31N 53°59' W 003°01'5 9.8
2019-Oct-22 01:00N 54°02' W 002°55'0 0.0
2019-Oct-22 00:27N 54°02' W 002°55'0 0.0
2019-Oct-21 23:57N 54°02' W 002°55'0 0.0
2019-Oct-21 23:21N 54°02' W 002°55'0 0.0
2019-Oct-21 22:51N 54°02' W 002°55'0 0.0
2019-Oct-21 22:31N 54°02' W 002°55'4 7.5
2019-Oct-21 22:00N 53°60' W 002°60'816.8
2019-Oct-21 21:30N 53°55' W 003°12'917.2
2019-Oct-21 21:00N 53°55' W 003°27'917.3
2019-Oct-21 20:30N 53°58' W 003°41'1 0.2
2019-Oct-21 15:10N 53°59' W 003°42'317.0
2019-Oct-21 15:00N 53°58' W 003°38'816.4
2019-Oct-21 14:30N 53°55' W 003°25'816.5
2019-Oct-21 14:01N 53°56' W 003°11'816.1
2019-Oct-21 13:31N 53°60' W 002°59'3 6.1
2019-Oct-21 12:59N 54°02' W 002°55'0 0.0
2019-Oct-21 12:29N 54°02' W 002°55'0 0.0
2019-Oct-21 11:59N 54°02' W 002°55'0 0.0
2019-Oct-21 11:29N 54°02' W 002°55'2 4.3
2019-Oct-21 11:00N 54°01' W 002°58'816.8
2019-Oct-21 10:30N 53°56' W 003°09'917.1
2019-Oct-21 10:00N 53°55' W 003°24'816.9
2019-Oct-21 09:31N 53°58' W 003°38'2 0.2
2019-Oct-21 02:50N 53°58' W 003°40'616.8
2019-Oct-21 02:30N 53°56' W 003°32'816.3
2019-Oct-21 02:00N 53°55' W 003°18'816.0
2019-Oct-21 01:31N 53°57' W 003°05'714.6
2019-Oct-21 01:00N 54°02' W 002°55'0 0.1
2019-Oct-21 00:16N 54°02' W 002°55'0 0.0
2019-Oct-20 23:40N 54°02' W 002°55'0 0.0
2019-Oct-20 23:28N 54°02' W 002°55'0 0.0
2019-Oct-20 22:58N 54°02' W 002°55'2 4.3
2019-Oct-20 22:31N 54°01' W 002°58'816.7
2019-Oct-20 22:00N 53°56' W 003°09'816.9
2019-Oct-20 21:31N 53°55' W 003°23'816.6
2019-Oct-20 21:00N 53°57' W 003°37'816.5
2019-Oct-20 20:30N 54°00' W 003°51'7 1.3
2019-Oct-20 14:52N 53°58' W 003°39'617.0
2019-Oct-20 14:30N 53°56' W 003°30'816.8
2019-Oct-20 14:01N 53°56' W 003°15'816.2
2019-Oct-20 13:31N 53°58' W 003°02'6 9.1
2019-Oct-20 12:52N 54°02' W 002°55'0 0.0
2019-Oct-20 12:28N 54°02' W 002°55'0 0.0
2019-Oct-20 11:58N 54°02' W 002°55'0 0.0
2019-Oct-20 11:28N 54°02' W 002°55'2 4.0
2019-Oct-20 11:01N 54°01' W 002°57'917.3
2019-Oct-20 10:31N 53°56' W 003°09'918.0
2019-Oct-20 10:01N 53°55' W 003°25'917.3
2019-Oct-20 09:31N 53°56' W 003°39'2 0.3
2019-Oct-20 02:50N 53°58' W 003°41'617.2
2019-Oct-20 02:30N 53°56' W 003°31'816.7
2019-Oct-20 02:00N 53°56' W 003°17'816.1
2019-Oct-20 01:30N 53°58' W 003°04'713.9
2019-Oct-20 01:00N 54°02' W 002°55'0 0.0
2019-Oct-20 00:25N 54°02' W 002°55'0 0.0
2019-Oct-19 23:55N 54°02' W 002°55'0 0.0
2019-Oct-19 23:25N 54°02' W 002°55'0 0.0
2019-Oct-19 22:55N 54°02' W 002°55'0 0.0
2019-Oct-19 22:25N 54°02' W 002°55'1 2.6
2019-Oct-19 22:01N 54°02' W 002°57'816.6
2019-Oct-19 21:31N 53°56' W 003°08'917.3
2019-Oct-19 21:00N 53°55' W 003°22'817.0
2019-Oct-19 20:31N 53°57' W 003°36'917.0
2019-Oct-19 20:00N 54°00' W 003°50'6 1.2
2019-Oct-19 14:58N 53°58' W 003°40'817.5
2019-Oct-19 14:30N 53°55' W 003°28'917.4
2019-Oct-19 14:00N 53°56' W 003°13'816.2
2019-Oct-19 13:30N 53°59' W 003°00'4 5.6
2019-Oct-19 12:44N 54°02' W 002°55'0 0.0
2019-Oct-19 12:20N 54°02' W 002°55'0 0.0
2019-Oct-19 11:56N 54°02' W 002°55'0 0.0
2019-Oct-19 11:20N 54°02' W 002°55'0 0.3
2019-Oct-19 11:00N 54°02' W 002°55'815.0
2019-Oct-19 10:31N 53°57' W 003°05'918.5
2019-Oct-19 10:01N 53°56' W 003°20'917.8
2019-Oct-19 09:31N 53°57' W 003°35'917.7
2019-Oct-19 08:59N 54°00' W 003°50'6 1.0
2019-Oct-19 02:44N 53°58' W 003°40'417.9
2019-Oct-19 02:31N 53°57' W 003°33'917.5
2019-Oct-19 02:01N 53°56' W 003°19'816.9
2019-Oct-19 01:30N 53°57' W 003°05'714.6
2019-Oct-19 01:01N 54°02' W 002°55'0 0.1
2019-Oct-19 00:26N 54°02' W 002°55'0 0.0
2019-Oct-18 23:59N 54°02' W 002°55'0 0.0
2019-Oct-18 23:26N 54°02' W 002°55'0 0.0
2019-Oct-18 22:56N 54°02' W 002°55'0 0.0
2019-Oct-18 22:26N 54°02' W 002°55'2 4.3
2019-Oct-18 22:00N 54°01' W 002°57'917.8
2019-Oct-18 21:30N 53°56' W 003°10'917.9
2019-Oct-18 21:00N 53°56' W 003°25'816.6
2019-Oct-18 20:30N 53°58' W 003°38'2 0.4
2019-Oct-18 14:36N 53°56' W 003°35'218.2
2019-Oct-18 14:30N 53°56' W 003°33'917.7
2019-Oct-18 14:00N 53°56' W 003°18'816.9
2019-Oct-18 13:30N 53°58' W 003°04'713.2
2019-Oct-18 13:00N 54°02' W 002°55'0 0.0
2019-Oct-18 12:30N 54°02' W 002°55'0 0.0
2019-Oct-18 12:00N 54°02' W 002°55'0 0.0
2019-Oct-18 11:30N 54°02' W 002°55'1 1.3
2019-Oct-18 11:00N 54°02' W 002°56'1019.2
2019-Oct-18 10:30N 53°56' W 003°09'918.7
2019-Oct-18 10:01N 53°56' W 003°25'918.0
2019-Oct-18 09:31N 53°57' W 003°40'1 0.2
2019-Oct-18 02:45N 53°58' W 003°40'417.8
2019-Oct-18 02:30N 53°56' W 003°33'917.3
2019-Oct-18 02:00N 53°55' W 003°19'917.3
2019-Oct-18 01:30N 53°58' W 003°04'714.1
2019-Oct-18 01:00N 54°02' W 002°55'0 0.0
2019-Oct-18 00:28N 54°02' W 002°55'0 0.0
2019-Oct-17 23:52N 54°02' W 002°55'0 0.0
2019-Oct-17 23:28N 54°02' W 002°55'0 0.0
2019-Oct-17 22:52N 54°02' W 002°55'0 0.0
2019-Oct-17 22:28N 54°02' W 002°55'2 5.3
2019-Oct-17 22:00N 54°00' W 002°58'918.9
2019-Oct-17 21:30N 53°55' W 003°12'918.3
2019-Oct-17 21:01N 53°55' W 003°27'917.1
2019-Oct-17 20:31N 53°59' W 003°41'6 1.1
2019-Oct-17 14:27N 53°56' W 003°30'818.0
2019-Oct-17 14:00N 53°56' W 003°17'917.7
2019-Oct-17 13:31N 53°58' W 003°03'6 6.0
2019-Oct-17 12:29N 54°02' W 002°55'0 0.0
2019-Oct-17 11:45N 54°02' W 002°55'0 0.0
2019-Oct-17 11:28N 54°02' W 002°55'1 2.5
2019-Oct-17 11:00N 54°02' W 002°57'1019.8
2019-Oct-17 10:30N 53°56' W 003°10'918.0
2019-Oct-17 10:00N 53°56' W 003°26'917.2
2019-Oct-17 09:30N 53°58' W 003°40'7 0.9
2019-Oct-17 02:19N 53°56' W 003°29'618.1
2019-Oct-17 01:59N 53°56' W 003°20'817.6
2019-Oct-17 01:30N 53°57' W 003°05'815.2
2019-Oct-17 01:00N 54°02' W 002°55'0 0.0
2019-Oct-16 23:49N 54°02' W 002°55'0 0.0
2019-Oct-16 23:01N 54°02' W 002°55'0 0.0
2019-Oct-16 22:55N 54°02' W 002°55'0 0.0
2019-Oct-16 22:13N 54°02' W 002°55'0 0.6
2019-Oct-16 22:00N 54°02' W 002°55'917.1
2019-Oct-16 21:30N 53°57' W 003°06'918.9
2019-Oct-16 21:00N 53°56' W 003°22'917.9
2019-Oct-16 20:30N 53°58' W 003°37'917.9
2019-Oct-16 19:59N 54°01' W 003°53'14 2.5
2019-Oct-16 14:25N 53°56' W 003°31'717.8
2019-Oct-16 14:01N 53°55' W 003°18'917.5
2019-Oct-16 13:31N 53°57' W 003°04'714.0
2019-Oct-16 13:00N 54°02' W 002°55'0 0.0
2019-Oct-16 10:58N 54°02' W 002°55'613.3
2019-Oct-16 10:30N 53°58' W 003°03'1019.6
2019-Oct-16 10:00N 53°55' W 003°18'918.7
2019-Oct-16 09:30N 53°55' W 003°34'1018.5
2019-Oct-16 08:57N 53°60' W 003°50'13 2.0
2019-Oct-16 02:14N 53°56' W 003°29'518.7
2019-Oct-16 01:59N 53°56' W 003°21'918.6
2019-Oct-16 01:30N 53°57' W 003°06'816.7
2019-Oct-16 01:00N 54°02' W 002°55'0 0.0
2019-Oct-15 22:12N 54°02' W 002°55'0 0.4
2019-Oct-15 21:59N 54°02' W 002°55'715.3
2019-Oct-15 21:30N 53°57' W 003°05'1019.1
2019-Oct-15 21:00N 53°55' W 003°20'918.4
2019-Oct-15 20:30N 53°57' W 003°36'918.2
2019-Oct-15 20:00N 54°01' W 003°50'14 2.4
2019-Oct-15 14:15N 53°56' W 003°29'418.3
2019-Oct-15 14:00N 53°56' W 003°21'918.6
2019-Oct-15 13:30N 53°57' W 003°06'8 3.5
2019-Oct-15 11:13N 54°02' W 002°55'0 1.7
2019-Oct-15 11:00N 54°02' W 002°56'918.0
2019-Oct-15 10:30N 53°56' W 003°08'918.7
2019-Oct-15 10:00N 53°56' W 003°23'918.1
2019-Oct-15 09:30N 53°58' W 003°38'6 0.8
2019-Oct-15 02:14N 53°56' W 003°29'418.9
2019-Oct-15 02:01N 53°56' W 003°22'918.9
2019-Oct-15 01:31N 53°57' W 003°06'816.7
2019-Oct-15 01:00N 54°02' W 002°55'0 0.0
2019-Oct-15 00:26N 54°02' W 002°55'0 0.0
2019-Oct-15 00:00N 54°02' W 002°55'0 0.0
2019-Oct-14 23:30N 54°02' W 002°55'0 0.0
2019-Oct-14 22:59N 54°02' W 002°55'0 0.0
2019-Oct-14 22:30N 54°02' W 002°55'0 0.0
2019-Oct-14 22:00N 54°02' W 002°55'713.7
2019-Oct-14 21:30N 53°58' W 003°04'918.7
2019-Oct-14 21:00N 53°56' W 003°19'917.8
2019-Oct-14 20:30N 53°57' W 003°34'1017.9
2019-Oct-14 19:58N 54°00' W 003°50'14 2.4
2019-Oct-14 14:19N 53°56' W 003°28'719.0
2019-Oct-14 13:57N 53°56' W 003°17'919.4
2019-Oct-14 13:30N 53°58' W 003°03'6 6.6
2019-Oct-14 12:37N 54°02' W 002°55'0 0.0
2019-Oct-14 12:28N 54°02' W 002°55'0 0.0
2019-Oct-14 11:22N 54°02' W 002°55'0 0.2
2019-Oct-14 11:00N 54°02' W 002°55'816.4
2019-Oct-14 10:30N 53°57' W 003°06'918.2
2019-Oct-14 10:00N 53°56' W 003°21'917.6
2019-Oct-14 09:30N 53°57' W 003°36'1117.8
2019-Oct-14 08:55N 54°01' W 003°53'918.0
2019-Oct-14 08:25N 54°04' W 004°07'24 3.9
2019-Oct-14 02:13N 53°56' W 003°29'418.5
2019-Oct-14 02:00N 53°56' W 003°22'918.6
2019-Oct-14 01:30N 53°57' W 003°06'816.5
2019-Oct-14 01:00N 54°02' W 002°55'0 0.0
2019-Oct-13 22:24N 54°02' W 002°55'410.1
2019-Oct-13 22:01N 53°59' W 002°60'1019.5
2019-Oct-13 21:31N 53°56' W 003°15'  

Dump ship's entire track history